Accueil
METAR-TAF:

METAR-TAF

Aéroports :

Plate-forme pétrolière

Goeree Le, Pays-Bas

latitude: 51-55-33N, longitude: 3-40-12E, altitude: 19 m

Observation

Le bulletin a été fait il y a 44 minutes, à 20:55 UTC
Vent 30 kt de sud/sud-ouest
Température 8°C
Humidité 93%
Pression 999 hPa
Visibilité 10 km ou plus

METAR: EHSC 282055Z AUTO 21030KT 9999 ///////// 08/07 Q0999 W08/H19

Heure: 22:39 (21:39 UTC)


TAF: absent

Observations et prévisions météorologiques de plus de 4000 aéroports (messages METAR et TAF).

Les stations disponibles sont représentées par des disques jaunes et rouges sur la carte.

Passer la souris dessus pour voir le nom de la station.

Cliquer dessus pour voir les observations et prévisions météorologiques.

Pour changer de carte: cliquez sur les boutons verts avec une croix noire pour zoomer, sur le bouton vert avec un tiret pour effectuer un zoom arrière, ou sur les flèches vertes pour les cartes adjacentes.


METAR-TAF: